sensor_id;sensor_type;location;lat;lon;timestamp;pressure;altitude;pressure_sealevel;temperature
19282;BMP180;9774;52.034;5.342;2022-07-10T00:01:00;102632.00;;;21.30
19282;BMP180;9774;52.034;5.342;2022-07-10T00:03:28;102622.00;;;21.30
19282;BMP180;9774;52.034;5.342;2022-07-10T00:05:55;102626.00;;;21.30
19282;BMP180;9774;52.034;5.342;2022-07-10T00:08:24;102622.00;;;21.30
19282;BMP180;9774;52.034;5.342;2022-07-10T00:10:51;102607.00;;;21.30
19282;BMP180;9774;52.034;5.342;2022-07-10T00:13:18;102613.00;;;21.30
19282;BMP180;9774;52.034;5.342;2022-07-10T00:15:45;102604.00;;;21.30
19282;BMP180;9774;52.034;5.342;2022-07-10T00:18:13;102604.00;;;21.30
19282;BMP180;9774;52.034;5.342;2022-07-10T00:20:40;102606.00;;;21.20
19282;BMP180;9774;52.034;5.342;2022-07-10T00:23:14;102610.00;;;21.20
19282;BMP180;9774;52.034;5.342;2022-07-10T00:25:43;102606.00;;;21.20
19282;BMP180;9774;52.034;5.342;2022-07-10T00:28:10;102611.00;;;21.20
19282;BMP180;9774;52.034;5.342;2022-07-10T00:30:37;102604.00;;;21.10
19282;BMP180;9774;52.034;5.342;2022-07-10T00:33:05;102599.00;;;21.10
19282;BMP180;9774;52.034;5.342;2022-07-10T00:35:32;102604.00;;;21.10
19282;BMP180;9774;52.034;5.342;2022-07-10T00:37:59;102605.00;;;21.10
19282;BMP180;9774;52.034;5.342;2022-07-10T00:40:26;102601.00;;;21.00
19282;BMP180;9774;52.034;5.342;2022-07-10T00:42:55;102608.00;;;21.00
19282;BMP180;9774;52.034;5.342;2022-07-10T00:45:22;102606.00;;;21.00
19282;BMP180;9774;52.034;5.342;2022-07-10T00:47:50;102609.00;;;21.00
19282;BMP180;9774;52.034;5.342;2022-07-10T00:50:17;102599.00;;;20.90
19282;BMP180;9774;52.034;5.342;2022-07-10T00:52:45;102613.00;;;20.90
19282;BMP180;9774;52.034;5.342;2022-07-10T00:55:14;102601.00;;;20.90
19282;BMP180;9774;52.034;5.342;2022-07-10T00:57:41;102607.00;;;20.80
19282;BMP180;9774;52.034;5.342;2022-07-10T01:00:11;102597.00;;;20.70
19282;BMP180;9774;52.034;5.342;2022-07-10T01:02:42;102605.00;;;20.70
19282;BMP180;9774;52.034;5.342;2022-07-10T01:05:10;102600.00;;;20.70
19282;BMP180;9774;52.034;5.342;2022-07-10T01:07:38;102596.00;;;20.70
19282;BMP180;9774;52.034;5.342;2022-07-10T01:10:06;102594.00;;;20.70
19282;BMP180;9774;52.034;5.342;2022-07-10T01:12:33;102588.00;;;20.60
19282;BMP180;9774;52.034;5.342;2022-07-10T01:15:02;102589.00;;;20.60
19282;BMP180;9774;52.034;5.342;2022-07-10T01:17:31;102586.00;;;20.60
19282;BMP180;9774;52.034;5.342;2022-07-10T01:20:05;102580.00;;;20.50
19282;BMP180;9774;52.034;5.342;2022-07-10T01:22:33;102581.00;;;20.60
19282;BMP180;9774;52.034;5.342;2022-07-10T01:25:01;102577.00;;;20.60
19282;BMP180;9774;52.034;5.342;2022-07-10T01:27:28;102581.00;;;20.50
19282;BMP180;9774;52.034;5.342;2022-07-10T01:29:55;102577.00;;;20.50
19282;BMP180;9774;52.034;5.342;2022-07-10T01:32:23;102578.00;;;20.50
19282;BMP180;9774;52.034;5.342;2022-07-10T01:34:50;102572.00;;;20.50
19282;BMP180;9774;52.034;5.342;2022-07-10T01:37:17;102574.00;;;20.50
19282;BMP180;9774;52.034;5.342;2022-07-10T01:39:46;102566.00;;;20.50
19282;BMP180;9774;52.034;5.342;2022-07-10T01:42:13;102574.00;;;20.50
19282;BMP180;9774;52.034;5.342;2022-07-10T01:44:40;102576.00;;;20.60
19282;BMP180;9774;52.034;5.342;2022-07-10T01:47:08;102578.00;;;20.60
19282;BMP180;9774;52.034;5.342;2022-07-10T01:49:37;102567.00;;;20.60
19282;BMP180;9774;52.034;5.342;2022-07-10T01:52:04;102572.00;;;20.60
19282;BMP180;9774;52.034;5.342;2022-07-10T01:54:32;102574.00;;;20.60
19282;BMP180;9774;52.034;5.342;2022-07-10T01:57:01;102567.00;;;20.50
19282;BMP180;9774;52.034;5.342;2022-07-10T01:59:28;102570.00;;;20.60
19282;BMP180;9774;52.034;5.342;2022-07-10T02:01:55;102561.00;;;20.60
19282;BMP180;9774;52.034;5.342;2022-07-10T02:04:23;102563.00;;;20.60
19282;BMP180;9774;52.034;5.342;2022-07-10T02:07:07;102561.00;;;20.50
19282;BMP180;9774;52.034;5.342;2022-07-10T02:09:35;102561.00;;;20.50
19282;BMP180;9774;52.034;5.342;2022-07-10T02:12:04;102559.00;;;20.50
19282;BMP180;9774;52.034;5.342;2022-07-10T02:14:32;102559.00;;;20.50
19282;BMP180;9774;52.034;5.342;2022-07-10T02:16:59;102554.00;;;20.60
19282;BMP180;9774;52.034;5.342;2022-07-10T02:19:27;102553.00;;;20.50
19282;BMP180;9774;52.034;5.342;2022-07-10T02:21:54;102566.00;;;20.50
19282;BMP180;9774;52.034;5.342;2022-07-10T02:24:22;102555.00;;;20.50
19282;BMP180;9774;52.034;5.342;2022-07-10T02:26:49;102560.00;;;20.50
19282;BMP180;9774;52.034;5.342;2022-07-10T02:29:18;102547.00;;;20.50
19282;BMP180;9774;52.034;5.342;2022-07-10T02:31:46;102550.00;;;20.60
19282;BMP180;9774;52.034;5.342;2022-07-10T02:34:13;102543.00;;;20.60
19282;BMP180;9774;52.034;5.342;2022-07-10T02:36:41;102551.00;;;20.60
19282;BMP180;9774;52.034;5.342;2022-07-10T02:39:08;102543.00;;;20.60
19282;BMP180;9774;52.034;5.342;2022-07-10T02:41:36;102537.00;;;20.60
19282;BMP180;9774;52.034;5.342;2022-07-10T02:44:03;102538.00;;;20.60
19282;BMP180;9774;52.034;5.342;2022-07-10T02:46:32;102543.00;;;20.60
19282;BMP180;9774;52.034;5.342;2022-07-10T02:48:59;102536.00;;;20.60
19282;BMP180;9774;52.034;5.342;2022-07-10T02:51:27;102540.00;;;20.60
19282;BMP180;9774;52.034;5.342;2022-07-10T02:53:55;102537.00;;;20.70
19282;BMP180;9774;52.034;5.342;2022-07-10T02:56:22;102531.00;;;20.70
19282;BMP180;9774;52.034;5.342;2022-07-10T02:58:49;102532.00;;;20.70
19282;BMP180;9774;52.034;5.342;2022-07-10T03:01:17;102531.00;;;20.70
19282;BMP180;9774;52.034;5.342;2022-07-10T03:03:45;102531.00;;;20.70
19282;BMP180;9774;52.034;5.342;2022-07-10T03:06:13;102538.00;;;20.70
19282;BMP180;9774;52.034;5.342;2022-07-10T03:08:40;102543.00;;;20.70
19282;BMP180;9774;52.034;5.342;2022-07-10T03:11:07;102544.00;;;20.70
19282;BMP180;9774;52.034;5.342;2022-07-10T03:13:35;102546.00;;;20.70
19282;BMP180;9774;52.034;5.342;2022-07-10T03:16:02;102539.00;;;20.80
19282;BMP180;9774;52.034;5.342;2022-07-10T03:18:29;102547.00;;;20.80
19282;BMP180;9774;52.034;5.342;2022-07-10T03:20:58;102544.00;;;20.80
19282;BMP180;9774;52.034;5.342;2022-07-10T03:23:25;102550.00;;;20.80
19282;BMP180;9774;52.034;5.342;2022-07-10T03:25:53;102553.00;;;20.80
19282;BMP180;9774;52.034;5.342;2022-07-10T03:28:20;102551.00;;;20.80
19282;BMP180;9774;52.034;5.342;2022-07-10T03:30:47;102547.00;;;20.80
19282;BMP180;9774;52.034;5.342;2022-07-10T03:33:15;102536.00;;;20.90
19282;BMP180;9774;52.034;5.342;2022-07-10T03:35:42;102540.00;;;20.90
19282;BMP180;9774;52.034;5.342;2022-07-10T03:38:10;102531.00;;;20.90
19282;BMP180;9774;52.034;5.342;2022-07-10T03:40:38;102536.00;;;20.90
19282;BMP180;9774;52.034;5.342;2022-07-10T03:43:05;102524.00;;;20.90
19282;BMP180;9774;52.034;5.342;2022-07-10T03:45:32;102532.00;;;20.90
19282;BMP180;9774;52.034;5.342;2022-07-10T03:48:00;102526.00;;;21.00
19282;BMP180;9774;52.034;5.342;2022-07-10T03:50:27;102533.00;;;21.00
19282;BMP180;9774;52.034;5.342;2022-07-10T03:52:54;102522.00;;;21.00
19282;BMP180;9774;52.034;5.342;2022-07-10T03:55:23;102527.00;;;21.00
19282;BMP180;9774;52.034;5.342;2022-07-10T03:57:51;102516.00;;;21.00
19282;BMP180;9774;52.034;5.342;2022-07-10T04:00:20;102529.00;;;21.10
19282;BMP180;9774;52.034;5.342;2022-07-10T04:02:53;102524.00;;;21.10
19282;BMP180;9774;52.034;5.342;2022-07-10T04:05:21;102528.00;;;21.10
19282;BMP180;9774;52.034;5.342;2022-07-10T04:07:48;102521.00;;;21.10
19282;BMP180;9774;52.034;5.342;2022-07-10T04:10:16;102517.00;;;21.10
19282;BMP180;9774;52.034;5.342;2022-07-10T04:12:44;102506.00;;;21.10
19282;BMP180;9774;52.034;5.342;2022-07-10T04:15:12;102520.00;;;21.20
19282;BMP180;9774;52.034;5.342;2022-07-10T04:17:39;102520.00;;;21.20
19282;BMP180;9774;52.034;5.342;2022-07-10T04:20:07;102520.00;;;21.20
19282;BMP180;9774;52.034;5.342;2022-07-10T04:22:35;102516.00;;;21.20
19282;BMP180;9774;52.034;5.342;2022-07-10T04:25:02;102515.00;;;21.30
19282;BMP180;9774;52.034;5.342;2022-07-10T04:27:30;102522.00;;;21.30
19282;BMP180;9774;52.034;5.342;2022-07-10T04:29:59;102526.00;;;21.30
19282;BMP180;9774;52.034;5.342;2022-07-10T04:32:27;102523.00;;;21.30
19282;BMP180;9774;52.034;5.342;2022-07-10T04:34:54;102518.00;;;21.30
19282;BMP180;9774;52.034;5.342;2022-07-10T04:37:22;102515.00;;;21.40
19282;BMP180;9774;52.034;5.342;2022-07-10T04:39:49;102513.00;;;21.40
19282;BMP180;9774;52.034;5.342;2022-07-10T04:42:16;102515.00;;;21.40
19282;BMP180;9774;52.034;5.342;2022-07-10T04:44:44;102522.00;;;21.40
19282;BMP180;9774;52.034;5.342;2022-07-10T04:47:12;102523.00;;;21.40
19282;BMP180;9774;52.034;5.342;2022-07-10T04:49:39;102526.00;;;21.50
19282;BMP180;9774;52.034;5.342;2022-07-10T04:52:07;102522.00;;;21.50
19282;BMP180;9774;52.034;5.342;2022-07-10T04:54:34;102519.00;;;21.60
19282;BMP180;9774;52.034;5.342;2022-07-10T04:57:02;102515.00;;;21.60
19282;BMP180;9774;52.034;5.342;2022-07-10T04:59:31;102518.00;;;21.60
19282;BMP180;9774;52.034;5.342;2022-07-10T05:01:58;102519.00;;;21.70
19282;BMP180;9774;52.034;5.342;2022-07-10T05:04:26;102514.00;;;21.70
19282;BMP180;9774;52.034;5.342;2022-07-10T05:06:54;102520.00;;;21.80
19282;BMP180;9774;52.034;5.342;2022-07-10T05:09:21;102525.00;;;21.80
19282;BMP180;9774;52.034;5.342;2022-07-10T05:11:48;102527.00;;;21.80
19282;BMP180;9774;52.034;5.342;2022-07-10T05:14:16;102535.00;;;21.90
19282;BMP180;9774;52.034;5.342;2022-07-10T05:16:43;102542.00;;;21.90
19282;BMP180;9774;52.034;5.342;2022-07-10T05:19:10;102529.00;;;21.90
19282;BMP180;9774;52.034;5.342;2022-07-10T05:21:39;102532.00;;;21.90
19282;BMP180;9774;52.034;5.342;2022-07-10T05:24:06;102533.00;;;22.00
19282;BMP180;9774;52.034;5.342;2022-07-10T05:26:34;102533.00;;;22.00
19282;BMP180;9774;52.034;5.342;2022-07-10T05:29:02;102537.00;;;22.00
19282;BMP180;9774;52.034;5.342;2022-07-10T05:31:29;102537.00;;;22.00
19282;BMP180;9774;52.034;5.342;2022-07-10T05:33:57;102533.00;;;22.00
19282;BMP180;9774;52.034;5.342;2022-07-10T05:36:24;102535.00;;;22.10
19282;BMP180;9774;52.034;5.342;2022-07-10T05:38:53;102534.00;;;22.10
19282;BMP180;9774;52.034;5.342;2022-07-10T05:41:20;102531.00;;;22.10
19282;BMP180;9774;52.034;5.342;2022-07-10T05:43:47;102530.00;;;22.10
19282;BMP180;9774;52.034;5.342;2022-07-10T05:46:14;102527.00;;;22.10
19282;BMP180;9774;52.034;5.342;2022-07-10T05:48:41;102520.00;;;22.10
19282;BMP180;9774;52.034;5.342;2022-07-10T05:51:09;102530.00;;;22.20
19282;BMP180;9774;52.034;5.342;2022-07-10T05:53:36;102533.00;;;22.20
19282;BMP180;9774;52.034;5.342;2022-07-10T05:56:06;102521.00;;;22.20
19282;BMP180;9774;52.034;5.342;2022-07-10T05:58:33;102526.00;;;22.20
19282;BMP180;9774;52.034;5.342;2022-07-10T06:01:00;102524.00;;;22.30
19282;BMP180;9774;52.034;5.342;2022-07-10T06:03:28;102527.00;;;22.30
19282;BMP180;9774;52.034;5.342;2022-07-10T06:05:55;102523.00;;;22.40
19282;BMP180;9774;52.034;5.342;2022-07-10T06:08:23;102526.00;;;22.40
19282;BMP180;9774;52.034;5.342;2022-07-10T06:10:50;102525.00;;;22.50
19282;BMP180;9774;52.034;5.342;2022-07-10T06:13:19;102526.00;;;22.50
19282;BMP180;9774;52.034;5.342;2022-07-10T06:15:47;102527.00;;;22.50
19282;BMP180;9774;52.034;5.342;2022-07-10T06:18:14;102530.00;;;22.50
19282;BMP180;9774;52.034;5.342;2022-07-10T06:20:42;102537.00;;;22.60
19282;BMP180;9774;52.034;5.342;2022-07-10T06:23:09;102527.00;;;22.60
19282;BMP180;9774;52.034;5.342;2022-07-10T06:25:37;102521.00;;;22.60
19282;BMP180;9774;52.034;5.342;2022-07-10T06:28:04;102536.00;;;22.60
19282;BMP180;9774;52.034;5.342;2022-07-10T06:30:33;102537.00;;;22.60
19282;BMP180;9774;52.034;5.342;2022-07-10T06:33:00;102539.00;;;22.70
19282;BMP180;9774;52.034;5.342;2022-07-10T06:35:27;102531.00;;;22.70
19282;BMP180;9774;52.034;5.342;2022-07-10T06:37:55;102534.00;;;22.80
19282;BMP180;9774;52.034;5.342;2022-07-10T06:40:22;102534.00;;;22.80
19282;BMP180;9774;52.034;5.342;2022-07-10T06:42:49;102533.00;;;22.80
19282;BMP180;9774;52.034;5.342;2022-07-10T06:45:17;102532.00;;;22.80
19282;BMP180;9774;52.034;5.342;2022-07-10T06:47:46;102538.00;;;22.90
19282;BMP180;9774;52.034;5.342;2022-07-10T06:50:26;102532.00;;;22.90
19282;BMP180;9774;52.034;5.342;2022-07-10T06:52:56;102520.00;;;22.90
19282;BMP180;9774;52.034;5.342;2022-07-10T06:55:24;102520.00;;;23.00
19282;BMP180;9774;52.034;5.342;2022-07-10T06:57:52;102527.00;;;23.00
19282;BMP180;9774;52.034;5.342;2022-07-10T07:00:19;102534.00;;;23.00
19282;BMP180;9774;52.034;5.342;2022-07-10T07:02:48;102532.00;;;23.10
19282;BMP180;9774;52.034;5.342;2022-07-10T07:05:15;102533.00;;;23.10
19282;BMP180;9774;52.034;5.342;2022-07-10T07:07:42;102543.00;;;23.10
19282;BMP180;9774;52.034;5.342;2022-07-10T07:10:10;102534.00;;;23.10
19282;BMP180;9774;52.034;5.342;2022-07-10T07:12:38;102534.00;;;23.10
19282;BMP180;9774;52.034;5.342;2022-07-10T07:15:06;102533.00;;;23.10
19282;BMP180;9774;52.034;5.342;2022-07-10T07:17:39;102536.00;;;23.10
19282;BMP180;9774;52.034;5.342;2022-07-10T07:20:25;102542.00;;;23.10
19282;BMP180;9774;52.034;5.342;2022-07-10T07:23:12;102541.00;;;23.20
19282;BMP180;9774;52.034;5.342;2022-07-10T07:25:40;102544.00;;;23.20
19282;BMP180;9774;52.034;5.342;2022-07-10T07:28:12;102535.00;;;23.20
19282;BMP180;9774;52.034;5.342;2022-07-10T07:30:41;102536.00;;;23.30
19282;BMP180;9774;52.034;5.342;2022-07-10T07:33:08;102535.00;;;23.30
19282;BMP180;9774;52.034;5.342;2022-07-10T07:35:38;102537.00;;;23.30
19282;BMP180;9774;52.034;5.342;2022-07-10T07:38:06;102540.00;;;23.30
19282;BMP180;9774;52.034;5.342;2022-07-10T07:40:33;102532.00;;;23.30
19282;BMP180;9774;52.034;5.342;2022-07-10T07:43:03;102542.00;;;23.40
19282;BMP180;9774;52.034;5.342;2022-07-10T07:45:31;102544.00;;;23.40
19282;BMP180;9774;52.034;5.342;2022-07-10T07:47:59;102538.00;;;23.40
19282;BMP180;9774;52.034;5.342;2022-07-10T07:50:29;102534.00;;;23.40
19282;BMP180;9774;52.034;5.342;2022-07-10T07:53:00;102535.00;;;23.50
19282;BMP180;9774;52.034;5.342;2022-07-10T07:55:28;102538.00;;;23.50
19282;BMP180;9774;52.034;5.342;2022-07-10T07:57:57;102533.00;;;23.50
19282;BMP180;9774;52.034;5.342;2022-07-10T08:00:26;102535.00;;;23.50
19282;BMP180;9774;52.034;5.342;2022-07-10T08:02:55;102533.00;;;23.60
19282;BMP180;9774;52.034;5.342;2022-07-10T08:05:23;102542.00;;;23.60
19282;BMP180;9774;52.034;5.342;2022-07-10T08:07:52;102543.00;;;23.60
19282;BMP180;9774;52.034;5.342;2022-07-10T08:10:22;102549.00;;;23.60
19282;BMP180;9774;52.034;5.342;2022-07-10T08:12:50;102552.00;;;23.70
19282;BMP180;9774;52.034;5.342;2022-07-10T08:15:19;102549.00;;;23.70
19282;BMP180;9774;52.034;5.342;2022-07-10T08:17:48;102546.00;;;23.70
19282;BMP180;9774;52.034;5.342;2022-07-10T08:20:15;102538.00;;;23.70
19282;BMP180;9774;52.034;5.342;2022-07-10T08:22:43;102548.00;;;23.70
19282;BMP180;9774;52.034;5.342;2022-07-10T08:25:11;102542.00;;;23.60
19282;BMP180;9774;52.034;5.342;2022-07-10T08:27:39;102550.00;;;23.60
19282;BMP180;9774;52.034;5.342;2022-07-10T08:30:08;102542.00;;;23.60
19282;BMP180;9774;52.034;5.342;2022-07-10T08:32:36;102538.00;;;23.60
19282;BMP180;9774;52.034;5.342;2022-07-10T08:35:05;102541.00;;;23.60
19282;BMP180;9774;52.034;5.342;2022-07-10T08:37:37;102536.00;;;23.60
19282;BMP180;9774;52.034;5.342;2022-07-10T08:40:06;102545.00;;;23.60
19282;BMP180;9774;52.034;5.342;2022-07-10T08:42:34;102538.00;;;23.60
19282;BMP180;9774;52.034;5.342;2022-07-10T08:45:03;102539.00;;;23.60
19282;BMP180;9774;52.034;5.342;2022-07-10T08:47:30;102540.00;;;23.70
19282;BMP180;9774;52.034;5.342;2022-07-10T08:50:01;102544.00;;;23.70
19282;BMP180;9774;52.034;5.342;2022-07-10T08:52:33;102535.00;;;23.70
19282;BMP180;9774;52.034;5.342;2022-07-10T08:55:00;102541.00;;;23.70
19282;BMP180;9774;52.034;5.342;2022-07-10T08:57:29;102538.00;;;23.80
19282;BMP180;9774;52.034;5.342;2022-07-10T08:59:57;102534.00;;;23.90
19282;BMP180;9774;52.034;5.342;2022-07-10T09:02:26;102531.00;;;23.90
19282;BMP180;9774;52.034;5.342;2022-07-10T09:04:54;102533.00;;;24.00
19282;BMP180;9774;52.034;5.342;2022-07-10T09:07:21;102522.00;;;24.10
19282;BMP180;9774;52.034;5.342;2022-07-10T09:09:54;102525.00;;;24.20
19282;BMP180;9774;52.034;5.342;2022-07-10T09:12:22;102522.00;;;24.30
19282;BMP180;9774;52.034;5.342;2022-07-10T09:14:50;102526.00;;;24.40
19282;BMP180;9774;52.034;5.342;2022-07-10T09:17:18;102527.00;;;24.50
19282;BMP180;9774;52.034;5.342;2022-07-10T09:19:46;102527.00;;;24.50
19282;BMP180;9774;52.034;5.342;2022-07-10T09:22:14;102521.00;;;24.60
19282;BMP180;9774;52.034;5.342;2022-07-10T09:24:43;102520.00;;;24.60
19282;BMP180;9774;52.034;5.342;2022-07-10T09:27:13;102515.00;;;24.70
19282;BMP180;9774;52.034;5.342;2022-07-10T09:29:48;102520.00;;;24.70
19282;BMP180;9774;52.034;5.342;2022-07-10T09:32:18;102520.00;;;24.80
19282;BMP180;9774;52.034;5.342;2022-07-10T09:34:48;102521.00;;;24.90
19282;BMP180;9774;52.034;5.342;2022-07-10T09:37:20;102518.00;;;24.90
19282;BMP180;9774;52.034;5.342;2022-07-10T09:39:53;102515.00;;;24.90
19282;BMP180;9774;52.034;5.342;2022-07-10T09:42:31;102518.00;;;24.90
19282;BMP180;9774;52.034;5.342;2022-07-10T09:45:18;102507.00;;;24.90
19282;BMP180;9774;52.034;5.342;2022-07-10T09:47:56;102508.00;;;25.00
19282;BMP180;9774;52.034;5.342;2022-07-10T09:50:29;102497.00;;;25.00
19282;BMP180;9774;52.034;5.342;2022-07-10T09:52:57;102497.00;;;25.10
19282;BMP180;9774;52.034;5.342;2022-07-10T09:55:26;102505.00;;;25.10
19282;BMP180;9774;52.034;5.342;2022-07-10T09:57:57;102498.00;;;25.10
19282;BMP180;9774;52.034;5.342;2022-07-10T10:00:26;102496.00;;;25.10
19282;BMP180;9774;52.034;5.342;2022-07-10T10:02:56;102503.00;;;25.20
19282;BMP180;9774;52.034;5.342;2022-07-10T10:05:36;102503.00;;;25.20
19282;BMP180;9774;52.034;5.342;2022-07-10T10:08:10;102509.00;;;25.30
19282;BMP180;9774;52.034;5.342;2022-07-10T10:10:43;102491.00;;;25.30
19282;BMP180;9774;52.034;5.342;2022-07-10T10:13:12;102503.00;;;25.40
19282;BMP180;9774;52.034;5.342;2022-07-10T10:15:43;102493.00;;;25.40
19282;BMP180;9774;52.034;5.342;2022-07-10T10:18:11;102494.00;;;25.40
19282;BMP180;9774;52.034;5.342;2022-07-10T10:20:40;102501.00;;;25.50
19282;BMP180;9774;52.034;5.342;2022-07-10T10:23:12;102502.00;;;25.50
19282;BMP180;9774;52.034;5.342;2022-07-10T10:25:40;102500.00;;;25.50
19282;BMP180;9774;52.034;5.342;2022-07-10T10:28:09;102501.00;;;25.50
19282;BMP180;9774;52.034;5.342;2022-07-10T10:30:39;102504.00;;;25.60
19282;BMP180;9774;52.034;5.342;2022-07-10T10:36:10;102498.00;;;25.60
19282;BMP180;9774;52.034;5.342;2022-07-10T10:39:08;102497.00;;;25.50
19282;BMP180;9774;52.034;5.342;2022-07-10T10:41:41;102494.00;;;25.60
19282;BMP180;9774;52.034;5.342;2022-07-10T10:44:27;102492.00;;;25.60
19282;BMP180;9774;52.034;5.342;2022-07-10T10:47:07;102482.00;;;25.70
19282;BMP180;9774;52.034;5.342;2022-07-10T10:49:52;102489.00;;;25.70
19282;BMP180;9774;52.034;5.342;2022-07-10T10:52:21;102488.00;;;25.80
19282;BMP180;9774;52.034;5.342;2022-07-10T10:55:14;102488.00;;;25.80
19282;BMP180;9774;52.034;5.342;2022-07-10T10:57:42;102494.00;;;25.90
19282;BMP180;9774;52.034;5.342;2022-07-10T11:00:15;102492.00;;;25.90
19282;BMP180;9774;52.034;5.342;2022-07-10T11:03:12;102493.00;;;25.80
19282;BMP180;9774;52.034;5.342;2022-07-10T11:05:41;102497.00;;;25.90
19282;BMP180;9774;52.034;5.342;2022-07-10T11:08:11;102497.00;;;25.90
19282;BMP180;9774;52.034;5.342;2022-07-10T11:10:40;102492.00;;;25.90
19282;BMP180;9774;52.034;5.342;2022-07-10T11:13:09;102495.00;;;25.80
19282;BMP180;9774;52.034;5.342;2022-07-10T11:15:37;102491.00;;;25.80
19282;BMP180;9774;52.034;5.342;2022-07-10T11:18:06;102489.00;;;25.80
19282;BMP180;9774;52.034;5.342;2022-07-10T11:20:35;102495.00;;;25.80
19282;BMP180;9774;52.034;5.342;2022-07-10T11:23:29;102492.00;;;25.60
19282;BMP180;9774;52.034;5.342;2022-07-10T11:26:04;102487.00;;;25.70
19282;BMP180;9774;52.034;5.342;2022-07-10T11:28:47;102493.00;;;25.70
19282;BMP180;9774;52.034;5.342;2022-07-10T11:31:16;102485.00;;;25.70
19282;BMP180;9774;52.034;5.342;2022-07-10T11:33:45;102486.00;;;25.80
19282;BMP180;9774;52.034;5.342;2022-07-10T11:36:16;102483.00;;;25.80
19282;BMP180;9774;52.034;5.342;2022-07-10T11:38:45;102483.00;;;25.80
19282;BMP180;9774;52.034;5.342;2022-07-10T11:41:17;102485.00;;;25.80
19282;BMP180;9774;52.034;5.342;2022-07-10T11:43:48;102485.00;;;25.80
19282;BMP180;9774;52.034;5.342;2022-07-10T11:46:16;102481.00;;;25.90
19282;BMP180;9774;52.034;5.342;2022-07-10T11:48:44;102481.00;;;25.90
19282;BMP180;9774;52.034;5.342;2022-07-10T11:51:20;102481.00;;;25.90
19282;BMP180;9774;52.034;5.342;2022-07-10T11:54:02;102486.00;;;25.90
19282;BMP180;9774;52.034;5.342;2022-07-10T11:56:32;102485.00;;;25.90
19282;BMP180;9774;52.034;5.342;2022-07-10T11:59:01;102483.00;;;26.00
19282;BMP180;9774;52.034;5.342;2022-07-10T12:01:31;102482.00;;;25.90
19282;BMP180;9774;52.034;5.342;2022-07-10T12:04:00;102473.00;;;26.00
19282;BMP180;9774;52.034;5.342;2022-07-10T12:06:28;102467.00;;;26.00
19282;BMP180;9774;52.034;5.342;2022-07-10T12:09:02;102475.00;;;26.10
19282;BMP180;9774;52.034;5.342;2022-07-10T12:11:30;102462.00;;;26.10
19282;BMP180;9774;52.034;5.342;2022-07-10T12:14:10;102465.00;;;26.10
19282;BMP180;9774;52.034;5.342;2022-07-10T12:16:38;102461.00;;;26.20
19282;BMP180;9774;52.034;5.342;2022-07-10T12:19:07;102464.00;;;26.30
19282;BMP180;9774;52.034;5.342;2022-07-10T12:21:34;102465.00;;;26.40
19282;BMP180;9774;52.034;5.342;2022-07-10T12:24:04;102470.00;;;26.40
19282;BMP180;9774;52.034;5.342;2022-07-10T12:26:35;102469.00;;;26.40
19282;BMP180;9774;52.034;5.342;2022-07-10T12:29:03;102472.00;;;26.50
19282;BMP180;9774;52.034;5.342;2022-07-10T12:31:32;102475.00;;;26.50
19282;BMP180;9774;52.034;5.342;2022-07-10T12:34:01;102464.00;;;26.60
19282;BMP180;9774;52.034;5.342;2022-07-10T12:36:45;102469.00;;;26.60
19282;BMP180;9774;52.034;5.342;2022-07-10T12:39:15;102474.00;;;26.80
19282;BMP180;9774;52.034;5.342;2022-07-10T12:41:59;102472.00;;;26.70
19282;BMP180;9774;52.034;5.342;2022-07-10T12:44:38;102464.00;;;26.90
19282;BMP180;9774;52.034;5.342;2022-07-10T12:47:06;102478.00;;;26.90
19282;BMP180;9774;52.034;5.342;2022-07-10T12:49:57;102477.00;;;26.90
19282;BMP180;9774;52.034;5.342;2022-07-10T12:52:26;102474.00;;;27.00
19282;BMP180;9774;52.034;5.342;2022-07-10T12:55:11;102465.00;;;27.00
19282;BMP180;9774;52.034;5.342;2022-07-10T12:57:47;102463.00;;;27.10
19282;BMP180;9774;52.034;5.342;2022-07-10T13:00:16;102473.00;;;27.20
19282;BMP180;9774;52.034;5.342;2022-07-10T13:02:44;102467.00;;;27.30
19282;BMP180;9774;52.034;5.342;2022-07-10T13:05:26;102468.00;;;27.20
19282;BMP180;9774;52.034;5.342;2022-07-10T13:08:03;102466.00;;;27.30
19282;BMP180;9774;52.034;5.342;2022-07-10T13:10:34;102460.00;;;27.40
19282;BMP180;9774;52.034;5.342;2022-07-10T13:13:02;102460.00;;;27.40
19282;BMP180;9774;52.034;5.342;2022-07-10T13:15:30;102454.00;;;27.40
19282;BMP180;9774;52.034;5.342;2022-07-10T13:17:57;102457.00;;;27.40
19282;BMP180;9774;52.034;5.342;2022-07-10T13:20:25;102459.00;;;27.40
19282;BMP180;9774;52.034;5.342;2022-07-10T13:22:52;102457.00;;;27.40
19282;BMP180;9774;52.034;5.342;2022-07-10T13:25:19;102454.00;;;27.50
19282;BMP180;9774;52.034;5.342;2022-07-10T13:27:49;102447.00;;;27.50
19282;BMP180;9774;52.034;5.342;2022-07-10T13:30:17;102450.00;;;27.60
19282;BMP180;9774;52.034;5.342;2022-07-10T13:32:44;102452.00;;;27.60
19282;BMP180;9774;52.034;5.342;2022-07-10T13:35:12;102452.00;;;27.70
19282;BMP180;9774;52.034;5.342;2022-07-10T13:37:39;102446.00;;;27.70
19282;BMP180;9774;52.034;5.342;2022-07-10T13:40:07;102450.00;;;27.70
19282;BMP180;9774;52.034;5.342;2022-07-10T13:42:35;102448.00;;;27.80
19282;BMP180;9774;52.034;5.342;2022-07-10T13:45:04;102448.00;;;27.90
19282;BMP180;9774;52.034;5.342;2022-07-10T13:47:34;102450.00;;;27.90
19282;BMP180;9774;52.034;5.342;2022-07-10T13:50:01;102450.00;;;27.90
19282;BMP180;9774;52.034;5.342;2022-07-10T13:52:29;102446.00;;;27.90
19282;BMP180;9774;52.034;5.342;2022-07-10T13:54:56;102454.00;;;27.90
19282;BMP180;9774;52.034;5.342;2022-07-10T13:57:24;102453.00;;;27.90
19282;BMP180;9774;52.034;5.342;2022-07-10T13:59:54;102455.00;;;27.90
19282;BMP180;9774;52.034;5.342;2022-07-10T14:02:22;102447.00;;;27.90
19282;BMP180;9774;52.034;5.342;2022-07-10T14:04:53;102455.00;;;27.90
19282;BMP180;9774;52.034;5.342;2022-07-10T14:07:20;102442.00;;;27.80
19282;BMP180;9774;52.034;5.342;2022-07-10T14:09:47;102443.00;;;27.80
19282;BMP180;9774;52.034;5.342;2022-07-10T14:12:15;102438.00;;;27.80
19282;BMP180;9774;52.034;5.342;2022-07-10T14:14:42;102438.00;;;27.80
19282;BMP180;9774;52.034;5.342;2022-07-10T14:17:10;102440.00;;;27.90
19282;BMP180;9774;52.034;5.342;2022-07-10T14:19:39;102441.00;;;27.90
19282;BMP180;9774;52.034;5.342;2022-07-10T14:22:07;102436.00;;;27.90
19282;BMP180;9774;52.034;5.342;2022-07-10T14:24:35;102437.00;;;27.90